createdAt,value
2018-12-21T00:01:52.699Z,15.70
2018-12-21T00:06:57.648Z,17.12
2018-12-21T00:12:01.417Z,17.53
2018-12-21T00:17:05.944Z,16.15
2018-12-21T00:22:09.753Z,16.17
2018-12-21T00:27:13.715Z,15.72
2018-12-21T00:32:23.230Z,17.45
2018-12-21T00:37:32.804Z,15.98
2018-12-21T00:42:41.105Z,16.93
2018-12-21T00:47:45.088Z,15.38
2018-12-21T00:52:48.841Z,17.10
2018-12-21T00:57:52.736Z,18.55
2018-12-21T01:02:56.804Z,14.68
2018-12-21T01:08:00.756Z,17.48
2018-12-21T01:13:04.648Z,16.65
2018-12-21T01:18:08.483Z,17.52
2018-12-21T01:23:12.346Z,17.57
2018-12-21T01:28:16.144Z,18.20
2018-12-21T01:33:19.963Z,19.10
2018-12-21T01:38:23.700Z,16.42
2018-12-21T01:43:27.609Z,16.30
2018-12-21T01:48:31.367Z,17.52
2018-12-21T01:53:35.179Z,16.45
2018-12-21T01:58:39.019Z,16.65
2018-12-21T02:03:43.900Z,15.38
2018-12-21T02:08:48.245Z,19.25
2018-12-21T02:13:52.912Z,17.80
2018-12-21T02:18:58.193Z,21.37
2018-12-21T02:24:02.168Z,20.35
2018-12-21T02:29:05.957Z,18.55
2018-12-21T02:34:09.892Z,19.35
2018-12-21T02:39:13.716Z,17.65
2018-12-21T02:44:17.626Z,18.12
2018-12-21T02:49:21.513Z,21.20
2018-12-21T02:54:25.499Z,15.68
2018-12-21T02:59:29.224Z,21.30
2018-12-21T03:04:33.162Z,18.37
2018-12-21T03:09:36.874Z,18.80
2018-12-21T03:14:40.671Z,19.40
2018-12-21T03:19:44.515Z,15.10
2018-12-21T03:24:48.297Z,15.28
2018-12-21T03:29:52.616Z,16.60
2018-12-21T03:34:56.474Z,16.90
2018-12-21T03:40:00.315Z,16.93
2018-12-21T03:45:04.277Z,18.42
2018-12-21T03:50:09.210Z,20.23
2018-12-21T03:55:13.071Z,16.62
2018-12-21T04:00:17.931Z,19.00
2018-12-21T04:05:21.999Z,19.62
2018-12-21T04:10:25.730Z,18.67
2018-12-21T04:15:29.768Z,17.65
2018-12-21T04:20:33.610Z,18.40
2018-12-21T04:25:37.368Z,25.02
2018-12-21T04:30:41.578Z,31.35
2018-12-21T04:35:45.736Z,22.90
2018-12-21T04:40:49.609Z,20.95
2018-12-21T04:45:53.772Z,21.57
2018-12-21T04:50:57.476Z,24.05
2018-12-21T04:56:01.241Z,22.45
2018-12-21T05:01:05.104Z,28.95
2018-12-21T05:06:08.975Z,54.33
2018-12-21T05:11:12.973Z,42.50
2018-12-21T05:16:17.479Z,42.23
2018-12-21T05:21:21.377Z,41.15
2018-12-21T05:26:25.231Z,21.02
2018-12-21T05:31:28.961Z,23.67
2018-12-21T05:36:32.837Z,28.90
2018-12-21T05:41:37.280Z,25.05
2018-12-21T05:46:42.317Z,27.48
2018-12-21T05:51:46.330Z,23.87
2018-12-21T05:56:50.099Z,19.35
2018-12-21T06:01:53.827Z,16.82
2018-12-21T06:06:57.778Z,22.02
2018-12-21T06:12:01.845Z,24.43
2018-12-21T06:17:06.707Z,24.90
2018-12-21T06:22:10.643Z,20.82
2018-12-21T06:27:14.542Z,25.45
2018-12-21T06:32:18.630Z,24.15
2018-12-21T06:37:22.356Z,23.87
2018-12-21T06:42:26.040Z,23.55
2018-12-21T06:47:29.826Z,23.22
2018-12-21T06:52:33.821Z,35.40
2018-12-21T06:57:37.836Z,27.60
2018-12-21T07:02:41.630Z,26.05
2018-12-21T07:07:46.066Z,23.55
2018-12-21T07:12:49.948Z,21.27
2018-12-21T07:17:53.676Z,25.37
2018-12-21T07:22:57.473Z,28.42
2018-12-21T07:28:01.335Z,29.65
2018-12-21T07:33:05.372Z,29.40
2018-12-21T07:38:09.861Z,33.85
2018-12-21T07:43:13.785Z,27.60
2018-12-21T07:48:17.525Z,29.98
2018-12-21T07:53:21.259Z,25.82
2018-12-21T07:58:25.029Z,21.20
2018-12-21T08:03:28.809Z,27.42
2018-12-21T08:08:32.818Z,34.83
2018-12-21T08:13:37.036Z,27.02
2018-12-21T08:18:41.894Z,24.77
2018-12-21T08:23:45.648Z,27.77
2018-12-21T08:28:49.583Z,24.82
2018-12-21T08:33:53.901Z,26.52
2018-12-21T08:38:57.992Z,20.90
2018-12-21T08:44:02.329Z,25.05
2018-12-21T08:49:06.245Z,23.98
2018-12-21T08:54:10.405Z,23.77
2018-12-21T08:59:14.214Z,21.48
2018-12-21T09:04:18.066Z,25.60
2018-12-21T09:09:22.721Z,19.67
2018-12-21T09:14:26.528Z,20.70
2018-12-21T09:19:30.340Z,22.20
2018-12-21T09:24:34.225Z,21.93
2018-12-21T09:29:38.007Z,19.75
2018-12-21T09:34:42.797Z,23.65
2018-12-21T09:39:46.668Z,27.27
2018-12-21T09:44:52.636Z,32.60
2018-12-21T09:49:56.545Z,34.48
2018-12-21T09:55:09.806Z,37.50
2018-12-21T10:00:15.310Z,40.90
2018-12-21T10:05:19.195Z,37.53
2018-12-21T10:10:23.345Z,29.63
2018-12-21T10:15:28.784Z,31.75
2018-12-21T10:20:33.034Z,28.77
2018-12-21T10:25:37.949Z,25.60
2018-12-21T10:30:42.792Z,24.23
2018-12-21T10:35:46.988Z,24.92
2018-12-21T10:40:50.896Z,31.02
2018-12-21T10:45:54.666Z,28.02
2018-12-21T10:50:58.836Z,27.55
2018-12-21T10:56:05.846Z,30.32
2018-12-21T11:01:09.718Z,29.63
2018-12-21T11:06:13.438Z,28.80
2018-12-21T11:11:17.410Z,24.45
2018-12-21T11:16:21.523Z,25.27
2018-12-21T11:21:25.414Z,25.40
2018-12-21T11:26:29.380Z,26.52
2018-12-21T11:31:33.740Z,25.35
2018-12-21T11:36:38.004Z,25.40
2018-12-21T11:41:42.054Z,26.30
2018-12-21T11:46:46.183Z,28.30
2018-12-21T11:51:50.087Z,23.65
2018-12-21T11:56:54.078Z,28.17
2018-12-21T12:02:00.302Z,28.23
2018-12-21T12:07:05.701Z,28.15
2018-12-21T12:12:09.997Z,35.20
2018-12-21T12:17:14.988Z,32.85
2018-12-21T12:22:18.943Z,27.65
2018-12-21T12:27:26.008Z,23.92
2018-12-21T12:32:30.263Z,24.92
2018-12-21T12:37:35.514Z,26.27
2018-12-21T12:42:39.301Z,30.72
2018-12-21T12:47:43.025Z,28.32
2018-12-21T12:52:50.139Z,26.80
2018-12-21T12:57:54.087Z,42.95
2018-12-21T13:02:57.995Z,27.25
2018-12-21T13:08:01.955Z,30.05
2018-12-21T13:13:05.944Z,30.40
2018-12-21T13:18:09.830Z,25.62
2018-12-21T13:23:14.015Z,30.57
2018-12-21T13:28:18.025Z,29.85
2018-12-21T13:33:21.875Z,37.55
2018-12-21T13:38:25.741Z,36.33
2018-12-21T13:43:29.693Z,36.10
2018-12-21T13:48:33.727Z,31.50
2018-12-21T13:53:37.585Z,33.65
2018-12-21T13:58:41.576Z,37.73
2018-12-21T14:03:45.364Z,39.25
2018-12-21T14:08:49.366Z,33.13
2018-12-21T14:13:52.988Z,34.65
2018-12-21T14:18:56.800Z,32.45
2018-12-21T14:24:00.719Z,41.10
2018-12-21T14:29:04.688Z,40.33
2018-12-21T14:34:08.527Z,50.60
2018-12-21T14:39:12.701Z,46.35
2018-12-21T14:44:16.523Z,55.58
2018-12-21T14:49:20.379Z,32.93
2018-12-21T14:54:24.305Z,40.38
2018-12-21T14:59:28.555Z,45.00
2018-12-21T15:04:32.652Z,35.15
2018-12-21T15:09:37.402Z,43.02
2018-12-21T15:14:41.275Z,40.60
2018-12-21T15:19:45.109Z,39.15
2018-12-21T15:24:49.200Z,39.95
2018-12-21T15:29:53.139Z,36.10
2018-12-21T15:34:57.058Z,40.03
2018-12-21T15:40:00.865Z,41.48
2018-12-21T15:45:06.622Z,51.95
2018-12-21T15:50:11.963Z,50.83
2018-12-21T15:55:15.747Z,46.92
2018-12-21T16:00:21.700Z,45.43
2018-12-21T16:05:25.782Z,37.58
2018-12-21T16:10:29.800Z,52.85
2018-12-21T16:15:33.845Z,48.90
2018-12-21T16:20:37.725Z,40.52
2018-12-21T16:25:41.739Z,52.10
2018-12-21T16:30:45.697Z,67.08
2018-12-21T16:35:49.590Z,45.67
2018-12-21T16:40:53.632Z,54.00
2018-12-21T16:45:57.709Z,58.28
2018-12-21T16:51:02.019Z,49.35
2018-12-21T16:56:12.372Z,46.00
2018-12-21T17:01:12.128Z,54.08
2018-12-21T17:06:16.360Z,57.73
2018-12-21T17:11:20.297Z,52.73
2018-12-21T17:16:24.296Z,42.83
2018-12-21T17:21:28.179Z,40.03
2018-12-21T17:26:32.090Z,40.40
2018-12-21T17:31:36.136Z,43.63
2018-12-21T17:36:40.214Z,55.25
2018-12-21T17:41:44.439Z,54.33
2018-12-21T17:46:48.454Z,50.95
2018-12-21T17:51:52.367Z,47.62
2018-12-21T17:56:56.306Z,48.87
2018-12-21T18:02:00.150Z,39.78
2018-12-21T18:07:05.641Z,32.00
2018-12-21T18:12:09.901Z,41.53
2018-12-21T18:17:13.935Z,46.90
2018-12-21T18:22:20.480Z,49.80
2018-12-21T18:27:24.972Z,42.05
2018-12-21T18:32:34.090Z,44.63
2018-12-21T18:37:50.450Z,49.93
2018-12-21T18:42:54.522Z,45.23
2018-12-21T18:47:59.191Z,46.45
2018-12-21T18:53:03.171Z,49.65
2018-12-21T18:58:07.272Z,61.80
2018-12-21T19:03:13.303Z,68.50
2018-12-21T19:08:17.399Z,61.75
2018-12-21T19:13:21.375Z,46.60
2018-12-21T19:18:25.169Z,43.70
2018-12-21T19:23:29.047Z,50.80
2018-12-21T19:28:35.188Z,55.88
2018-12-21T19:33:39.330Z,57.88
2018-12-21T19:38:43.701Z,48.17
2018-12-21T19:43:47.729Z,44.75
2018-12-21T19:48:51.572Z,39.67
2018-12-21T19:53:55.998Z,47.78
2018-12-21T19:58:59.841Z,45.43
2018-12-21T20:04:03.771Z,39.30
2018-12-21T20:09:07.992Z,64.58
2018-12-21T20:14:12.182Z,56.53
2018-12-21T20:19:16.334Z,47.20
2018-12-21T20:24:23.294Z,39.73
2018-12-21T20:29:27.334Z,44.90
2018-12-21T20:34:31.699Z,37.63
2018-12-21T20:39:37.777Z,44.20
2018-12-21T20:44:41.637Z,35.60
2018-12-21T20:49:45.578Z,47.10
2018-12-21T20:54:49.467Z,58.98
2018-12-21T20:59:53.196Z,66.40
2018-12-21T21:04:57.214Z,46.35
2018-12-21T21:10:01.113Z,54.60
2018-12-21T21:15:06.488Z,53.33
2018-12-21T21:20:12.575Z,43.38
2018-12-21T21:25:17.006Z,49.60
2018-12-21T21:30:21.131Z,46.92
2018-12-21T21:35:25.036Z,70.15
2018-12-21T21:40:29.049Z,53.15
2018-12-21T21:45:32.888Z,46.42
2018-12-21T21:50:36.875Z,49.25
2018-12-21T21:55:40.751Z,46.13
2018-12-21T22:00:44.613Z,47.23
2018-12-21T22:05:48.620Z,37.10
2018-12-21T22:10:52.536Z,34.43
2018-12-21T22:15:57.986Z,45.23
2018-12-21T22:21:01.939Z,58.23
2018-12-21T22:26:05.840Z,34.83
2018-12-21T22:31:09.899Z,30.65
2018-12-21T22:36:13.857Z,58.92
2018-12-21T22:41:17.615Z,39.95
2018-12-21T22:46:21.377Z,41.30
2018-12-21T22:51:26.565Z,34.70
2018-12-21T22:56:30.537Z,34.08
2018-12-21T23:01:34.330Z,38.40
2018-12-21T23:06:38.182Z,41.83
2018-12-21T23:11:42.042Z,37.15
2018-12-21T23:16:45.977Z,31.57
2018-12-21T23:21:50.939Z,39.65
2018-12-21T23:26:55.275Z,40.48
2018-12-21T23:31:59.405Z,36.00
2018-12-21T23:37:06.569Z,30.40
2018-12-21T23:42:10.497Z,29.23
2018-12-21T23:47:14.332Z,34.78
2018-12-21T23:52:18.196Z,33.45
2018-12-21T23:57:21.915Z,35.33
